sensor_id;sensor_type;location;lat;lon;timestamp;pressure;altitude;pressure_sealevel;temperature
15360;BMP280;7779;49.596;11.070;2023-11-19T00:00:36;98290.25;;;10.21
15360;BMP280;7779;49.596;11.070;2023-11-19T00:03:02;98275.44;;;10.24
15360;BMP280;7779;49.596;11.070;2023-11-19T00:05:27;98259.47;;;10.22
15360;BMP280;7779;49.596;11.070;2023-11-19T00:07:54;98257.81;;;10.22
15360;BMP280;7779;49.596;11.070;2023-11-19T00:10:20;98271.97;;;10.22
15360;BMP280;7779;49.596;11.070;2023-11-19T00:12:48;98277.03;;;10.23
15360;BMP280;7779;49.596;11.070;2023-11-19T00:15:16;98267.13;;;10.25
15360;BMP280;7779;49.596;11.070;2023-11-19T00:17:45;98249.69;;;10.26
15360;BMP280;7779;49.596;11.070;2023-11-19T00:20:16;98250.53;;;10.27
15360;BMP280;7779;49.596;11.070;2023-11-19T00:22:42;98251.47;;;10.29
15360;BMP280;7779;49.596;11.070;2023-11-19T00:25:09;98252.44;;;10.31
15360;BMP280;7779;49.596;11.070;2023-11-19T00:27:38;98255.91;;;10.33
15360;BMP280;7779;49.596;11.070;2023-11-19T00:30:06;98251.66;;;10.32
15360;BMP280;7779;49.596;11.070;2023-11-19T00:32:33;98248.31;;;10.31
15360;BMP280;7779;49.596;11.070;2023-11-19T00:34:59;98237.50;;;10.32
15360;BMP280;7779;49.596;11.070;2023-11-19T00:37:25;98235.78;;;10.31
15360;BMP280;7779;49.596;11.070;2023-11-19T00:39:51;98223.19;;;10.30
15360;BMP280;7779;49.596;11.070;2023-11-19T00:42:17;98223.28;;;10.31
15360;BMP280;7779;49.596;11.070;2023-11-19T00:44:43;98211.59;;;10.32
15360;BMP280;7779;49.596;11.070;2023-11-19T00:47:09;98209.09;;;10.32
15360;BMP280;7779;49.596;11.070;2023-11-19T00:49:34;98207.34;;;10.31
15360;BMP280;7779;49.596;11.070;2023-11-19T00:52:00;98206.59;;;10.32
15360;BMP280;7779;49.596;11.070;2023-11-19T00:54:27;98209.09;;;10.32
15360;BMP280;7779;49.596;11.070;2023-11-19T00:56:53;98214.09;;;10.32
15360;BMP280;7779;49.596;11.070;2023-11-19T00:59:19;98210.84;;;10.33
15360;BMP280;7779;49.596;11.070;2023-11-19T01:01:45;98211.78;;;10.35
15360;BMP280;7779;49.596;11.070;2023-11-19T01:04:11;98207.72;;;10.37
15360;BMP280;7779;49.596;11.070;2023-11-19T01:06:36;98208.56;;;10.37
15360;BMP280;7779;49.596;11.070;2023-11-19T01:09:02;98203.66;;;10.39
15360;BMP280;7779;49.596;11.070;2023-11-19T01:11:28;98216.25;;;10.40
15360;BMP280;7779;49.596;11.070;2023-11-19T01:13:54;98209.59;;;10.41
15360;BMP280;7779;49.596;11.070;2023-11-19T01:16:20;98206.34;;;10.42
15360;BMP280;7779;49.596;11.070;2023-11-19T01:18:47;98206.38;;;10.43
15360;BMP280;7779;49.596;11.070;2023-11-19T01:21:15;98210.63;;;10.44
15360;BMP280;7779;49.596;11.070;2023-11-19T01:23:42;98196.53;;;10.46
15360;BMP280;7779;49.596;11.070;2023-11-19T01:26:14;98196.63;;;10.48
15360;BMP280;7779;49.596;11.070;2023-11-19T01:28:40;98200.84;;;10.49
15360;BMP280;7779;49.596;11.070;2023-11-19T01:31:08;98191.72;;;10.49
15360;BMP280;7779;49.596;11.070;2023-11-19T01:33:39;98190.06;;;10.50
15360;BMP280;7779;49.596;11.070;2023-11-19T01:36:05;98181.75;;;10.51
15360;BMP280;7779;49.596;11.070;2023-11-19T01:38:31;98180.97;;;10.52
15360;BMP280;7779;49.596;11.070;2023-11-19T01:40:57;98164.31;;;10.52
15360;BMP280;7779;49.596;11.070;2023-11-19T01:43:34;98160.19;;;10.52
15360;BMP280;7779;49.596;11.070;2023-11-19T01:46:02;98159.22;;;10.51
15360;BMP280;7779;49.596;11.070;2023-11-19T01:48:32;98151.00;;;10.53
15360;BMP280;7779;49.596;11.070;2023-11-19T01:51:00;98142.66;;;10.52
15360;BMP280;7779;49.596;11.070;2023-11-19T01:53:27;98139.34;;;10.53
15360;BMP280;7779;49.596;11.070;2023-11-19T01:55:54;98130.25;;;10.55
15360;BMP280;7779;49.596;11.070;2023-11-19T01:58:22;98131.91;;;10.55
15360;BMP280;7779;49.596;11.070;2023-11-19T02:00:48;98128.56;;;10.54
15360;BMP280;7779;49.596;11.070;2023-11-19T02:03:15;98127.84;;;10.57
15360;BMP280;7779;49.596;11.070;2023-11-19T02:05:41;98120.41;;;10.58
15360;BMP280;7779;49.596;11.070;2023-11-19T02:08:08;98119.69;;;10.61
15360;BMP280;7779;49.596;11.070;2023-11-19T02:10:34;98113.03;;;10.61
15360;BMP280;7779;49.596;11.070;2023-11-19T02:13:01;98115.72;;;10.64
15360;BMP280;7779;49.596;11.070;2023-11-19T02:15:28;98118.31;;;10.66
15360;BMP280;7779;49.596;11.070;2023-11-19T02:17:53;98128.41;;;10.67
15360;BMP280;7779;49.596;11.070;2023-11-19T02:20:20;98127.59;;;10.68
15360;BMP280;7779;49.596;11.070;2023-11-19T02:22:49;98120.09;;;10.68
15360;BMP280;7779;49.596;11.070;2023-11-19T02:25:29;98127.78;;;10.71
15360;BMP280;7779;49.596;11.070;2023-11-19T02:28:03;98122.78;;;10.71
15360;BMP280;7779;49.596;11.070;2023-11-19T02:30:30;98129.53;;;10.72
15360;BMP280;7779;49.596;11.070;2023-11-19T02:32:58;98126.22;;;10.73
15360;BMP280;7779;49.596;11.070;2023-11-19T02:35:27;98127.94;;;10.74
15360;BMP280;7779;49.596;11.070;2023-11-19T02:37:57;98126.38;;;10.76
15360;BMP280;7779;49.596;11.070;2023-11-19T02:40:24;98123.06;;;10.77
15360;BMP280;7779;49.596;11.070;2023-11-19T02:42:51;98125.56;;;10.77
15360;BMP280;7779;49.596;11.070;2023-11-19T02:45:17;98122.31;;;10.78
15360;BMP280;7779;49.596;11.070;2023-11-19T02:47:43;98123.06;;;10.77
15360;BMP280;7779;49.596;11.070;2023-11-19T02:50:12;98122.38;;;10.80
15360;BMP280;7779;49.596;11.070;2023-11-19T02:52:44;98122.38;;;10.80
15360;BMP280;7779;49.596;11.070;2023-11-19T02:55:12;98115.72;;;10.80
15360;BMP280;7779;49.596;11.070;2023-11-19T02:57:42;98108.22;;;10.80
15360;BMP280;7779;49.596;11.070;2023-11-19T03:00:22;98096.53;;;10.81
15360;BMP280;7779;49.596;11.070;2023-11-19T03:02:50;98096.44;;;10.79
15360;BMP280;7779;49.596;11.070;2023-11-19T03:05:26;98091.44;;;10.79
15360;BMP280;7779;49.596;11.070;2023-11-19T03:07:52;98092.16;;;10.77
15360;BMP280;7779;49.596;11.070;2023-11-19T03:10:18;98092.16;;;10.77
15360;BMP280;7779;49.596;11.070;2023-11-19T03:12:44;98074.69;;;10.78
15360;BMP280;7779;49.596;11.070;2023-11-19T03:15:11;98069.69;;;10.78
15360;BMP280;7779;49.596;11.070;2023-11-19T03:17:42;98066.47;;;10.81
15360;BMP280;7779;49.596;11.070;2023-11-19T03:20:11;98064.03;;;10.82
15360;BMP280;7779;49.596;11.070;2023-11-19T03:22:41;98054.78;;;10.81
15360;BMP280;7779;49.596;11.070;2023-11-19T03:25:08;98048.94;;;10.81
15360;BMP280;7779;49.596;11.070;2023-11-19T03:27:38;98053.84;;;10.79
15360;BMP280;7779;49.596;11.070;2023-11-19T03:30:09;98038.78;;;10.78
15360;BMP280;7779;49.596;11.070;2023-11-19T03:32:35;98032.88;;;10.77
15360;BMP280;7779;49.596;11.070;2023-11-19T03:35:02;97998.59;;;10.76
15360;BMP280;7779;49.596;11.070;2023-11-19T03:37:30;97964.22;;;10.74
15360;BMP280;7779;49.596;11.070;2023-11-19T03:39:57;97944.03;;;10.71
15360;BMP280;7779;49.596;11.070;2023-11-19T03:42:28;97933.13;;;10.70
15360;BMP280;7779;49.596;11.070;2023-11-19T03:44:56;97930.59;;;10.69
15360;BMP280;7779;49.596;11.070;2023-11-19T03:47:22;97942.22;;;10.68
15360;BMP280;7779;49.596;11.070;2023-11-19T03:49:52;97955.69;;;10.70
15360;BMP280;7779;49.596;11.070;2023-11-19T03:52:18;97973.31;;;10.72
15360;BMP280;7779;49.596;11.070;2023-11-19T03:54:45;97976.75;;;10.74
15360;BMP280;7779;49.596;11.070;2023-11-19T03:57:13;97981.06;;;10.76
15360;BMP280;7779;49.596;11.070;2023-11-19T03:59:41;97983.66;;;10.78
15360;BMP280;7779;49.596;11.070;2023-11-19T04:02:06;97974.59;;;10.81
15360;BMP280;7779;49.596;11.070;2023-11-19T04:04:33;97983.09;;;10.83
15360;BMP280;7779;49.596;11.070;2023-11-19T04:07:00;97972.41;;;10.87
15360;BMP280;7779;49.596;11.070;2023-11-19T04:09:28;97972.56;;;10.90
15360;BMP280;7779;49.596;11.070;2023-11-19T04:11:59;97971.22;;;10.96
15360;BMP280;7779;49.596;11.070;2023-11-19T04:14:26;97968.78;;;10.98
15360;BMP280;7779;49.596;11.070;2023-11-19T04:16:52;97980.66;;;11.02
15360;BMP280;7779;49.596;11.070;2023-11-19T04:19:19;97995.06;;;11.06
15360;BMP280;7779;49.596;11.070;2023-11-19T04:21:45;97990.22;;;11.09
15360;BMP280;7779;49.596;11.070;2023-11-19T04:24:12;97986.06;;;11.09
15360;BMP280;7779;49.596;11.070;2023-11-19T04:26:42;97992.94;;;11.13
15360;BMP280;7779;49.596;11.070;2023-11-19T04:29:13;97998.03;;;11.15
15360;BMP280;7779;49.596;11.070;2023-11-19T04:31:41;97998.88;;;11.15
15360;BMP280;7779;49.596;11.070;2023-11-19T04:34:07;97993.16;;;11.18
15360;BMP280;7779;49.596;11.070;2023-11-19T04:36:33;97988.22;;;11.19
15360;BMP280;7779;49.596;11.070;2023-11-19T04:39:00;97992.53;;;11.22
15360;BMP280;7779;49.596;11.070;2023-11-19T04:41:27;97988.34;;;11.22
15360;BMP280;7779;49.596;11.070;2023-11-19T04:43:55;97988.28;;;11.21
15360;BMP280;7779;49.596;11.070;2023-11-19T04:46:21;97985.91;;;11.24
15360;BMP280;7779;49.596;11.070;2023-11-19T04:48:47;97986.06;;;11.27
15360;BMP280;7779;49.596;11.070;2023-11-19T04:51:13;97974.38;;;11.27
15360;BMP280;7779;49.596;11.070;2023-11-19T04:53:38;97977.91;;;11.30
15360;BMP280;7779;49.596;11.070;2023-11-19T04:56:11;97965.38;;;11.30
15360;BMP280;7779;49.596;11.070;2023-11-19T04:58:37;97970.38;;;11.30
15360;BMP280;7779;49.596;11.070;2023-11-19T05:01:04;97978.00;;;11.32
15360;BMP280;7779;49.596;11.070;2023-11-19T05:03:33;97980.50;;;11.32
15360;BMP280;7779;49.596;11.070;2023-11-19T05:05:59;97971.31;;;11.32
15360;BMP280;7779;49.596;11.070;2023-11-19T05:08:24;97969.00;;;11.37
15360;BMP280;7779;49.596;11.070;2023-11-19T05:10:50;97963.28;;;11.39
15360;BMP280;7779;49.596;11.070;2023-11-19T05:13:16;97962.56;;;11.42
15360;BMP280;7779;49.596;11.070;2023-11-19T05:15:42;97963.69;;;11.47
15360;BMP280;7779;49.596;11.070;2023-11-19T05:18:08;97966.25;;;11.48
15360;BMP280;7779;49.596;11.070;2023-11-19T05:20:34;97951.22;;;11.48
15360;BMP280;7779;49.596;11.070;2023-11-19T05:23:00;97944.63;;;11.50
15360;BMP280;7779;49.596;11.070;2023-11-19T05:25:26;97935.50;;;11.52
15360;BMP280;7779;49.596;11.070;2023-11-19T05:27:53;97936.44;;;11.54
15360;BMP280;7779;49.596;11.070;2023-11-19T05:30:18;97930.69;;;11.57
15360;BMP280;7779;49.596;11.070;2023-11-19T05:32:44;97929.19;;;11.60
15360;BMP280;7779;49.596;11.070;2023-11-19T05:35:11;97917.56;;;11.62
15360;BMP280;7779;49.596;11.070;2023-11-19T05:37:37;97924.38;;;11.65
15360;BMP280;7779;49.596;11.070;2023-11-19T05:40:05;97921.94;;;11.66
15360;BMP280;7779;49.596;11.070;2023-11-19T05:42:37;97923.72;;;11.69
15360;BMP280;7779;49.596;11.070;2023-11-19T05:45:03;97922.94;;;11.70
15360;BMP280;7779;49.596;11.070;2023-11-19T05:47:29;97922.22;;;11.72
15360;BMP280;7779;49.596;11.070;2023-11-19T05:49:55;97919.69;;;11.72
15360;BMP280;7779;49.596;11.070;2023-11-19T05:52:20;97918.19;;;11.75
15360;BMP280;7779;49.596;11.070;2023-11-19T05:54:47;97927.50;;;11.78
15360;BMP280;7779;49.596;11.070;2023-11-19T05:57:17;97924.22;;;11.79
15360;BMP280;7779;49.596;11.070;2023-11-19T05:59:48;97919.25;;;11.80
15360;BMP280;7779;49.596;11.070;2023-11-19T06:02:14;97917.59;;;11.81
15360;BMP280;7779;49.596;11.070;2023-11-19T06:04:39;97919.31;;;11.82
15360;BMP280;7779;49.596;11.070;2023-11-19T06:07:05;97915.25;;;11.84
15360;BMP280;7779;49.596;11.070;2023-11-19T06:09:31;97918.59;;;11.84
15360;BMP280;7779;49.596;11.070;2023-11-19T06:11:59;97911.16;;;11.86
15360;BMP280;7779;49.596;11.070;2023-11-19T06:14:27;97920.38;;;11.87
15360;BMP280;7779;49.596;11.070;2023-11-19T06:16:53;97922.09;;;11.88
15360;BMP280;7779;49.596;11.070;2023-11-19T06:19:19;97929.75;;;11.91
15360;BMP280;7779;49.596;11.070;2023-11-19T06:21:44;97926.53;;;11.93
15360;BMP280;7779;49.596;11.070;2023-11-19T06:24:10;97930.03;;;11.97
15360;BMP280;7779;49.596;11.070;2023-11-19T06:26:36;97926.88;;;12.01
15360;BMP280;7779;49.596;11.070;2023-11-19T06:29:01;97924.50;;;12.04
15360;BMP280;7779;49.596;11.070;2023-11-19T06:31:27;97919.59;;;12.07
15360;BMP280;7779;49.596;11.070;2023-11-19T06:33:53;97917.22;;;12.09
15360;BMP280;7779;49.596;11.070;2023-11-19T06:36:18;97916.56;;;12.13
15360;BMP280;7779;49.596;11.070;2023-11-19T06:38:44;97912.47;;;12.15
15360;BMP280;7779;49.596;11.070;2023-11-19T06:41:10;97915.88;;;12.17
15360;BMP280;7779;49.596;11.070;2023-11-19T06:43:37;97921.13;;;12.22
15360;BMP280;7779;49.596;11.070;2023-11-19T06:46:03;97917.88;;;12.24
15360;BMP280;7779;49.596;11.070;2023-11-19T06:48:32;97911.34;;;12.28
15360;BMP280;7779;49.596;11.070;2023-11-19T06:50:59;97913.09;;;12.30
15360;BMP280;7779;49.596;11.070;2023-11-19T06:53:25;97905.72;;;12.33
15360;BMP280;7779;49.596;11.070;2023-11-19T06:55:51;97915.09;;;12.37
15360;BMP280;7779;49.596;11.070;2023-11-19T06:58:16;97910.91;;;12.38
15360;BMP280;7779;49.596;11.070;2023-11-19T07:00:43;97913.50;;;12.39
15360;BMP280;7779;49.596;11.070;2023-11-19T07:03:09;97914.41;;;12.41
15360;BMP280;7779;49.596;11.070;2023-11-19T07:05:36;97915.34;;;12.43
15360;BMP280;7779;49.596;11.070;2023-11-19T07:08:05;97912.88;;;12.45
15360;BMP280;7779;49.596;11.070;2023-11-19T07:10:32;97918.81;;;12.45
15360;BMP280;7779;49.596;11.070;2023-11-19T07:12:59;97918.91;;;12.48
15360;BMP280;7779;49.596;11.070;2023-11-19T07:15:25;97922.34;;;12.50
15360;BMP280;7779;49.596;11.070;2023-11-19T07:17:51;97911.50;;;12.51
15360;BMP280;7779;49.596;11.070;2023-11-19T07:20:20;97918.38;;;12.55
15360;BMP280;7779;49.596;11.070;2023-11-19T07:22:45;97920.94;;;12.56
15360;BMP280;7779;49.596;11.070;2023-11-19T07:25:13;97921.09;;;12.59
15360;BMP280;7779;49.596;11.070;2023-11-19T07:27:39;97928.81;;;12.64
15360;BMP280;7779;49.596;11.070;2023-11-19T07:30:07;97933.16;;;12.68
15360;BMP280;7779;49.596;11.070;2023-11-19T07:32:33;97928.25;;;12.71
15360;BMP280;7779;49.596;11.070;2023-11-19T07:34:59;97931.69;;;12.73
15360;BMP280;7779;49.596;11.070;2023-11-19T07:37:25;97939.38;;;12.76
15360;BMP280;7779;49.596;11.070;2023-11-19T07:39:51;97947.00;;;12.79
15360;BMP280;7779;49.596;11.070;2023-11-19T07:42:16;97951.41;;;12.83
15360;BMP280;7779;49.596;11.070;2023-11-19T07:44:43;97942.28;;;12.85
15360;BMP280;7779;49.596;11.070;2023-11-19T07:47:09;97947.44;;;12.88
15360;BMP280;7779;49.596;11.070;2023-11-19T07:49:35;97938.44;;;12.92
15360;BMP280;7779;49.596;11.070;2023-11-19T07:52:01;97942.78;;;12.96
15360;BMP280;7779;49.596;11.070;2023-11-19T07:54:28;97943.75;;;13.00
15360;BMP280;7779;49.596;11.070;2023-11-19T07:56:54;97939.72;;;13.03
15360;BMP280;7779;49.596;11.070;2023-11-19T07:59:21;97939.84;;;13.06
15360;BMP280;7779;49.596;11.070;2023-11-19T08:01:46;97940.84;;;13.10
15360;BMP280;7779;49.596;11.070;2023-11-19T08:04:13;97941.78;;;13.13
15360;BMP280;7779;49.596;11.070;2023-11-19T08:06:39;97941.13;;;13.17
15360;BMP280;7779;49.596;11.070;2023-11-19T08:09:05;97937.88;;;13.20
15360;BMP280;7779;49.596;11.070;2023-11-19T08:11:33;97937.13;;;13.22
15360;BMP280;7779;49.596;11.070;2023-11-19T08:13:59;97942.28;;;13.25
15360;BMP280;7779;49.596;11.070;2023-11-19T08:16:24;97946.56;;;13.27
15360;BMP280;7779;49.596;11.070;2023-11-19T08:18:50;97954.09;;;13.27
15360;BMP280;7779;49.596;11.070;2023-11-19T08:21:16;97944.09;;;13.29
15360;BMP280;7779;49.596;11.070;2023-11-19T08:23:41;97932.38;;;13.29
15360;BMP280;7779;49.596;11.070;2023-11-19T08:26:07;97935.78;;;13.30
15360;BMP280;7779;49.596;11.070;2023-11-19T08:28:34;97924.97;;;13.32
15360;BMP280;7779;49.596;11.070;2023-11-19T08:31:00;97918.25;;;13.33
15360;BMP280;7779;49.596;11.070;2023-11-19T08:33:26;97917.47;;;13.34
15360;BMP280;7779;49.596;11.070;2023-11-19T08:35:52;97915.88;;;13.36
15360;BMP280;7779;49.596;11.070;2023-11-19T08:38:18;97922.66;;;13.38
15360;BMP280;7779;49.596;11.070;2023-11-19T08:40:44;97918.63;;;13.42
15360;BMP280;7779;49.596;11.070;2023-11-19T08:43:09;97912.94;;;13.46
15360;BMP280;7779;49.596;11.070;2023-11-19T08:45:35;97911.31;;;13.48
15360;BMP280;7779;49.596;11.070;2023-11-19T08:48:01;97913.16;;;13.52
15360;BMP280;7779;49.596;11.070;2023-11-19T08:50:27;97906.50;;;13.54
15360;BMP280;7779;49.596;11.070;2023-11-19T08:52:53;97915.88;;;13.58
15360;BMP280;7779;49.596;11.070;2023-11-19T08:55:18;97915.19;;;13.62
15360;BMP280;7779;49.596;11.070;2023-11-19T08:57:44;97919.50;;;13.64
15360;BMP280;7779;49.596;11.070;2023-11-19T09:00:11;97912.09;;;13.68
15360;BMP280;7779;49.596;11.070;2023-11-19T09:02:39;97921.59;;;13.75
15360;BMP280;7779;49.596;11.070;2023-11-19T09:05:06;97915.19;;;13.83
15360;BMP280;7779;49.596;11.070;2023-11-19T09:07:34;97918.72;;;13.88
15360;BMP280;7779;49.596;11.070;2023-11-19T09:10:01;97923.19;;;13.95
15360;BMP280;7779;49.596;11.070;2023-11-19T09:12:27;97903.19;;;14.00
15360;BMP280;7779;49.596;11.070;2023-11-19T09:14:53;97918.59;;;14.06
15360;BMP280;7779;49.596;11.070;2023-11-19T09:17:19;97925.50;;;14.11
15360;BMP280;7779;49.596;11.070;2023-11-19T09:19:44;97931.59;;;14.17
15360;BMP280;7779;49.596;11.070;2023-11-19T09:22:11;97939.41;;;14.25
15360;BMP280;7779;49.596;11.070;2023-11-19T09:24:36;97936.44;;;14.35
15360;BMP280;7779;49.596;11.070;2023-11-19T09:27:02;97937.78;;;14.48
15360;BMP280;7779;49.596;11.070;2023-11-19T09:29:31;97935.91;;;14.68
15360;BMP280;7779;49.596;11.070;2023-11-19T09:31:58;97941.63;;;14.87
15360;BMP280;7779;49.596;11.070;2023-11-19T09:34:23;97934.50;;;15.00
15360;BMP280;7779;49.596;11.070;2023-11-19T09:36:49;97946.84;;;15.16
15360;BMP280;7779;49.596;11.070;2023-11-19T09:39:15;97941.34;;;15.27
15360;BMP280;7779;49.596;11.070;2023-11-19T09:41:44;97945.97;;;15.40
15360;BMP280;7779;49.596;11.070;2023-11-19T09:44:11;97948.06;;;15.53
15360;BMP280;7779;49.596;11.070;2023-11-19T09:46:40;97942.56;;;15.66
15360;BMP280;7779;49.596;11.070;2023-11-19T09:49:10;97941.31;;;15.80
15360;BMP280;7779;49.596;11.070;2023-11-19T09:51:36;97938.22;;;15.90
15360;BMP280;7779;49.596;11.070;2023-11-19T09:54:02;97933.53;;;16.02
15360;BMP280;7779;49.596;11.070;2023-11-19T09:56:29;97925.38;;;16.11
15360;BMP280;7779;49.596;11.070;2023-11-19T09:58:56;97924.91;;;16.23
15360;BMP280;7779;49.596;11.070;2023-11-19T10:01:22;97920.97;;;16.32
15360;BMP280;7779;49.596;11.070;2023-11-19T10:03:49;97927.22;;;16.44
15360;BMP280;7779;49.596;11.070;2023-11-19T10:06:15;97913.91;;;16.51
15360;BMP280;7779;49.596;11.070;2023-11-19T10:08:42;97918.44;;;16.63
15360;BMP280;7779;49.596;11.070;2023-11-19T10:11:09;97910.19;;;16.70
15360;BMP280;7779;49.596;11.070;2023-11-19T10:13:37;97905.19;;;16.73
15360;BMP280;7779;49.596;11.070;2023-11-19T10:16:12;97904.44;;;16.75
15360;BMP280;7779;49.596;11.070;2023-11-19T10:18:46;97902.75;;;16.76
15360;BMP280;7779;49.596;11.070;2023-11-19T10:21:13;97910.34;;;16.76
15360;BMP280;7779;49.596;11.070;2023-11-19T10:23:54;97913.75;;;16.78
15360;BMP280;7779;49.596;11.070;2023-11-19T10:26:20;97906.97;;;16.77
15360;BMP280;7779;49.596;11.070;2023-11-19T10:28:47;97916.28;;;16.78
15360;BMP280;7779;49.596;11.070;2023-11-19T10:31:18;97906.25;;;16.81
15360;BMP280;7779;49.596;11.070;2023-11-19T10:33:45;97894.56;;;16.85
15360;BMP280;7779;49.596;11.070;2023-11-19T10:36:14;97892.13;;;16.88
15360;BMP280;7779;49.596;11.070;2023-11-19T10:38:51;97881.25;;;16.92
15360;BMP280;7779;49.596;11.070;2023-11-19T10:41:28;97893.97;;;16.95
15360;BMP280;7779;49.596;11.070;2023-11-19T10:43:53;97880.44;;;16.93
15360;BMP280;7779;49.596;11.070;2023-11-19T10:46:19;97893.97;;;16.95
15360;BMP280;7779;49.596;11.070;2023-11-19T10:48:49;97895.75;;;16.99
15360;BMP280;7779;49.596;11.070;2023-11-19T10:51:19;97884.09;;;17.04
15360;BMP280;7779;49.596;11.070;2023-11-19T10:53:49;97884.31;;;17.13
15360;BMP280;7779;49.596;11.070;2023-11-19T10:56:24;97892.09;;;17.21
15360;BMP280;7779;49.596;11.070;2023-11-19T10:58:51;97895.53;;;17.22
15360;BMP280;7779;49.596;11.070;2023-11-19T11:01:23;97886.25;;;17.23
15360;BMP280;7779;49.596;11.070;2023-11-19T11:03:52;97885.41;;;17.22
15360;BMP280;7779;49.596;11.070;2023-11-19T11:06:20;97881.13;;;17.21
15360;BMP280;7779;49.596;11.070;2023-11-19T11:08:48;97888.72;;;17.20
15360;BMP280;7779;49.596;11.070;2023-11-19T11:11:15;97876.13;;;17.23
15360;BMP280;7779;49.596;11.070;2023-11-19T11:13:44;97879.63;;;17.28
15360;BMP280;7779;49.596;11.070;2023-11-19T11:16:10;97867.97;;;17.34
15360;BMP280;7779;49.596;11.070;2023-11-19T11:18:36;97870.69;;;17.43
15360;BMP280;7779;49.596;11.070;2023-11-19T11:21:14;97853.16;;;17.51
15360;BMP280;7779;49.596;11.070;2023-11-19T11:24:03;97848.88;;;17.50
15360;BMP280;7779;49.596;11.070;2023-11-19T11:26:59;97851.50;;;17.53
15360;BMP280;7779;49.596;11.070;2023-11-19T11:29:39;97848.94;;;17.51
15360;BMP280;7779;49.596;11.070;2023-11-19T11:32:22;97862.41;;;17.50
15360;BMP280;7779;49.596;11.070;2023-11-19T11:35:12;97864.97;;;17.52
15360;BMP280;7779;49.596;11.070;2023-11-19T11:37:57;97856.56;;;17.53
15360;BMP280;7779;49.596;11.070;2023-11-19T11:40:26;97854.88;;;17.53
15360;BMP280;7779;49.596;11.070;2023-11-19T11:42:52;97852.34;;;17.53
15360;BMP280;7779;49.596;11.070;2023-11-19T11:45:18;97864.97;;;17.52
15360;BMP280;7779;49.596;11.070;2023-11-19T11:50:20;97841.28;;;17.50
15360;BMP280;7779;49.596;11.070;2023-11-19T11:55:36;97854.06;;;17.56
15360;BMP280;7779;49.596;11.070;2023-11-19T11:58:03;97846.56;;;17.59
15360;BMP280;7779;49.596;11.070;2023-11-19T12:00:38;97851.69;;;17.61
15360;BMP280;7779;49.596;11.070;2023-11-19T12:03:06;97843.25;;;17.62
15360;BMP280;7779;49.596;11.070;2023-11-19T12:05:42;97851.69;;;17.61
15360;BMP280;7779;49.596;11.070;2023-11-19T12:08:11;97847.41;;;17.59
15360;BMP280;7779;49.596;11.070;2023-11-19T12:10:51;97838.06;;;17.57
15360;BMP280;7779;49.596;11.070;2023-11-19T12:13:20;97832.94;;;17.54
15360;BMP280;7779;49.596;11.070;2023-11-19T12:18:30;97838.78;;;17.51
15360;BMP280;7779;49.596;11.070;2023-11-19T12:21:01;97832.88;;;17.51
15360;BMP280;7779;49.596;11.070;2023-11-19T12:23:29;97833.72;;;17.51
15360;BMP280;7779;49.596;11.070;2023-11-19T12:25:55;97830.31;;;17.49
15360;BMP280;7779;49.596;11.070;2023-11-19T12:28:21;97821.84;;;17.47
15360;BMP280;7779;49.596;11.070;2023-11-19T12:30:50;97815.88;;;17.47
15360;BMP280;7779;49.596;11.070;2023-11-19T12:33:16;97822.59;;;17.45
15360;BMP280;7779;49.596;11.070;2023-11-19T12:35:47;97816.63;;;17.41
15360;BMP280;7779;49.596;11.070;2023-11-19T12:38:25;97829.19;;;17.37
15360;BMP280;7779;49.596;11.070;2023-11-19T12:41:09;97824.81;;;17.30
15360;BMP280;7779;49.596;11.070;2023-11-19T12:43:39;97822.16;;;17.24
15360;BMP280;7779;49.596;11.070;2023-11-19T12:46:22;97829.59;;;17.18
15360;BMP280;7779;49.596;11.070;2023-11-19T12:48:49;97831.16;;;17.13
15360;BMP280;7779;49.596;11.070;2023-11-19T12:51:16;97825.16;;;17.10
15360;BMP280;7779;49.596;11.070;2023-11-19T12:53:49;97820.84;;;17.06
15360;BMP280;7779;49.596;11.070;2023-11-19T12:56:16;97827.56;;;17.04
15360;BMP280;7779;49.596;11.070;2023-11-19T12:58:42;97830.06;;;17.02
15360;BMP280;7779;49.596;11.070;2023-11-19T13:01:09;97831.69;;;17.00
15360;BMP280;7779;49.596;11.070;2023-11-19T13:03:38;97833.38;;;17.01
15360;BMP280;7779;49.596;11.070;2023-11-19T13:06:10;97829.25;;;17.05
15360;BMP280;7779;49.596;11.070;2023-11-19T13:08:47;97827.69;;;17.10
15360;BMP280;7779;49.596;11.070;2023-11-19T13:11:30;97821.91;;;17.15
15360;BMP280;7779;49.596;11.070;2023-11-19T13:14:00;97822.84;;;17.17
15360;BMP280;7779;49.596;11.070;2023-11-19T13:16:28;97826.13;;;17.16
15360;BMP280;7779;49.596;11.070;2023-11-19T13:18:54;97829.50;;;17.15
15360;BMP280;7779;49.596;11.070;2023-11-19T13:21:20;97825.25;;;17.14
15360;BMP280;7779;49.596;11.070;2023-11-19T13:23:46;97817.53;;;17.08
15360;BMP280;7779;49.596;11.070;2023-11-19T13:26:12;97822.50;;;17.04
15360;BMP280;7779;49.596;11.070;2023-11-19T13:28:38;97811.44;;;17.00
15360;BMP280;7779;49.596;11.070;2023-11-19T13:31:05;97811.38;;;16.97
15360;BMP280;7779;49.596;11.070;2023-11-19T13:33:30;97805.41;;;16.95
15360;BMP280;7779;49.596;11.070;2023-11-19T13:35:56;97793.53;;;16.91
15360;BMP280;7779;49.596;11.070;2023-11-19T13:38:22;97793.53;;;16.91
15360;BMP280;7779;49.596;11.070;2023-11-19T13:40:51;97799.38;;;16.90
15360;BMP280;7779;49.596;11.070;2023-11-19T13:43:17;97790.13;;;16.89
15360;BMP280;7779;49.596;11.070;2023-11-19T13:45:42;97786.78;;;16.92
15360;BMP280;7779;49.596;11.070;2023-11-19T13:48:08;97782.59;;;16.94
15360;BMP280;7779;49.596;11.070;2023-11-19T13:50:35;97791.03;;;16.94
15360;BMP280;7779;49.596;11.070;2023-11-19T13:53:00;97792.81;;;16.97
15360;BMP280;7779;49.596;11.070;2023-11-19T13:55:26;97796.97;;;16.95
15360;BMP280;7779;49.596;11.070;2023-11-19T13:57:52;97787.59;;;16.91
15360;BMP280;7779;49.596;11.070;2023-11-19T14:00:18;97785.72;;;16.82
15360;BMP280;7779;49.596;11.070;2023-11-19T14:02:46;97786.31;;;16.73
15360;BMP280;7779;49.596;11.070;2023-11-19T14:05:13;97788.63;;;16.64
15360;BMP280;7779;49.596;11.070;2023-11-19T14:07:40;97780.81;;;16.53
15360;BMP280;7779;49.596;11.070;2023-11-19T14:10:07;97805.06;;;16.47
15360;BMP280;7779;49.596;11.070;2023-11-19T14:12:35;97810.75;;;16.39
15360;BMP280;7779;49.596;11.070;2023-11-19T14:15:06;97799.63;;;16.32
15360;BMP280;7779;49.596;11.070;2023-11-19T14:17:33;97800.28;;;16.25
15360;BMP280;7779;49.596;11.070;2023-11-19T14:19:59;97796.75;;;16.19